Time;durP1;ratioP1;P1;durP2;ratioP2;P2;SDS_P1;SDS_P2;PMS_P1;PMS_P2;Temp;Humidity;BMP_temperature;BMP_pressure;BME280_temperature;BME280_humidity;BME280_pressure;Samples;Min_cycle;Max_cycle;Signal;HPM_P1;HPM_P2
2021/09/13 00:01:17;;;;;;;9.00;5.87;;;14.50;99.90;;;;;;5077837;28;20657;-75
2021/09/13 00:03:44;;;;;;;6.80;5.57;;;14.50;99.90;;;;;;5082483;28;20290;-75
2021/09/13 00:06:11;;;;;;;9.47;5.90;;;14.50;99.90;;;;;;5073771;28;20714;-76
2021/09/13 00:08:38;;;;;;;7.47;5.97;;;14.60;99.90;;;;;;5072988;28;20202;-76
2021/09/13 00:11:04;;;;;;;8.70;5.67;;;14.50;99.90;;;;;;5073741;28;20569;-76
2021/09/13 00:13:31;;;;;;;8.97;5.73;;;14.50;99.90;;;;;;5073598;28;20195;-76
2021/09/13 00:15:58;;;;;;;8.30;5.40;;;14.40;99.90;;;;;;5073165;28;20651;-76
2021/09/13 00:18:27;;;;;;;9.17;5.80;;;14.40;99.90;;;;;;5073588;28;20195;-76
2021/09/13 00:20:53;;;;;;;10.33;5.37;;;14.50;99.90;;;;;;5072476;28;20262;-76
2021/09/13 00:23:20;;;;;;;6.60;5.30;;;14.40;99.90;;;;;;5073148;28;20235;-76
2021/09/13 00:25:47;;;;;;;11.97;5.70;;;14.50;99.90;;;;;;5073329;28;20202;-76
2021/09/13 00:28:14;;;;;;;9.13;5.40;;;14.50;99.90;;;;;;5093060;28;20581;-76
2021/09/13 00:30:41;;;;;;;12.63;6.23;;;14.40;99.90;;;;;;5093390;28;20285;-76
2021/09/13 00:33:08;;;;;;;14.23;5.67;;;14.30;99.90;;;;;;5093823;28;20300;-76
2021/09/13 00:35:36;;;;;;;12.27;5.80;;;14.30;99.90;;;;;;5093515;28;20265;-76
2021/09/13 00:38:03;;;;;;;9.60;5.90;;;14.50;99.90;;;;;;5093491;28;20203;-76
2021/09/13 00:40:30;;;;;;;8.23;6.27;;;14.60;99.90;;;;;;5093129;28;20653;-76
2021/09/13 00:42:57;;;;;;;13.70;6.03;;;14.50;99.90;;;;;;5073427;28;20214;-76
2021/09/13 00:45:24;;;;;;;12.30;6.60;;;14.50;99.90;;;;;;5072972;28;20203;-76
2021/09/13 00:47:51;;;;;;;9.63;6.53;;;14.40;99.90;;;;;;5073403;28;20282;-76
2021/09/13 00:50:18;;;;;;;10.03;5.97;;;14.20;99.90;;;;;;5073036;28;20195;-76
2021/09/13 00:52:52;;;;;;;9.60;5.70;;;14.10;99.90;;;;;;5073336;28;20196;-76
2021/09/13 00:55:19;;;;;;;7.77;5.97;;;14.30;99.90;;;;;;5073001;28;20221;-76
2021/09/13 00:57:46;;;;;;;11.20;6.40;;;14.50;99.90;;;;;;5073350;28;20199;-76
2021/09/13 01:00:14;;;;;;;8.33;5.83;;;14.60;99.90;;;;;;5073231;28;20215;-76
2021/09/13 01:02:41;;;;;;;11.40;6.63;;;14.60;99.90;;;;;;5073389;28;20739;-76
2021/09/13 01:05:10;;;;;;;10.77;6.77;;;14.50;99.90;;;;;;5072584;28;20204;-76
2021/09/13 01:07:37;;;;;;;10.03;6.57;;;14.20;99.90;;;;;;5073016;28;20203;-76
2021/09/13 01:10:06;;;;;;;13.40;6.50;;;14.10;99.90;;;;;;5072439;28;20679;-76
2021/09/13 01:12:33;;;;;;;12.53;6.43;;;14.30;99.90;;;;;;5073009;28;20328;-76
2021/09/13 01:15:00;;;;;;;9.47;6.90;;;14.30;99.90;;;;;;5072911;28;20196;-77
2021/09/13 01:17:27;;;;;;;11.13;6.53;;;14.10;99.90;;;;;;5073184;28;20204;-76
2021/09/13 01:19:54;;;;;;;10.00;6.43;;;14.20;99.90;;;;;;5073151;28;20200;-76
2021/09/13 01:22:21;;;;;;;11.77;7.03;;;14.30;99.90;;;;;;5072565;28;20229;-76
2021/09/13 01:24:50;;;;;;;13.07;6.63;;;14.50;99.90;;;;;;5072847;28;20652;-76
2021/09/13 01:27:16;;;;;;;8.20;6.57;;;14.60;99.90;;;;;;5073782;28;20207;-76
2021/09/13 01:29:43;;;;;;;9.87;6.83;;;14.70;99.90;;;;;;5076288;28;20210;-77
2021/09/13 01:32:11;;;;;;;10.37;7.40;;;14.60;99.90;;;;;;5076500;28;20203;-77
2021/09/13 01:34:38;;;;;;;12.07;7.60;;;14.60;99.90;;;;;;5076331;28;20685;-76
2021/09/13 01:37:05;;;;;;;10.43;7.17;;;14.50;99.90;;;;;;5076020;28;20676;-76
2021/09/13 01:39:32;;;;;;;12.47;7.23;;;14.40;99.90;;;;;;5076110;28;20226;-77
2021/09/13 01:42:00;;;;;;;14.70;7.27;;;14.50;99.90;;;;;;5076271;28;20597;-76
2021/09/13 01:44:27;;;;;;;13.03;7.33;;;14.50;99.90;;;;;;5076198;28;20199;-77
2021/09/13 01:46:54;;;;;;;11.17;7.60;;;14.50;99.90;;;;;;5075907;28;20291;-76
2021/09/13 01:49:21;;;;;;;12.77;7.50;;;14.40;99.90;;;;;;5076036;28;20202;-77
2021/09/13 01:51:47;;;;;;;14.70;7.83;;;14.40;99.90;;;;;;5076186;28;20230;-77
2021/09/13 01:54:14;;;;;;;13.30;7.97;;;14.30;99.90;;;;;;5076156;28;20684;-77
2021/09/13 01:56:41;;;;;;;14.10;8.07;;;14.30;99.90;;;;;;5076220;28;20222;-77
2021/09/13 01:59:09;;;;;;;13.40;8.57;;;14.30;99.90;;;;;;5075631;28;20610;-77
2021/09/13 02:01:36;;;;;;;16.10;9.20;;;14.40;99.90;;;;;;5075557;28;20227;-77
2021/09/13 02:04:03;;;;;;;16.80;9.77;;;14.30;99.90;;;;;;5075270;28;20229;-77
2021/09/13 02:06:31;;;;;;;14.83;9.70;;;14.30;99.90;;;;;;5076253;28;20203;-77
2021/09/13 02:08:58;;;;;;;19.63;10.23;;;14.20;99.90;;;;;;5075553;28;20608;-77
2021/09/13 02:11:25;;;;;;;17.67;10.80;;;14.20;99.90;;;;;;5075430;28;20196;-77
2021/09/13 02:13:52;;;;;;;17.03;10.83;;;14.10;99.90;;;;;;5075486;28;20207;-77
2021/09/13 02:16:20;;;;;;;13.70;9.73;;;14.10;99.90;;;;;;5075516;28;20206;-77
2021/09/13 02:18:47;;;;;;;18.87;10.43;;;14.20;99.90;;;;;;5075521;28;20286;-77
2021/09/13 02:21:14;;;;;;;16.40;10.60;;;14.30;99.90;;;;;;5075895;28;20219;-77
2021/09/13 02:23:41;;;;;;;17.63;10.60;;;14.40;99.90;;;;;;5075175;28;20223;-77
2021/09/13 02:26:08;;;;;;;15.00;10.73;;;14.40;99.90;;;;;;5075475;28;20205;-77
2021/09/13 02:28:34;;;;;;;19.97;12.83;;;14.30;99.90;;;;;;5075353;28;20199;-77
2021/09/13 02:31:01;;;;;;;20.83;11.77;;;14.30;99.90;;;;;;5075401;28;20230;-77
2021/09/13 02:33:29;;;;;;;15.90;10.57;;;14.20;99.90;;;;;;5075008;28;20214;-77
2021/09/13 02:35:56;;;;;;;13.77;9.03;;;14.10;99.90;;;;;;5074953;28;20211;-77
2021/09/13 02:38:23;;;;;;;13.20;9.43;;;13.90;99.90;;;;;;5075058;28;20293;-77
2021/09/13 02:40:50;;;;;;;13.70;9.17;;;13.90;99.90;;;;;;5074788;28;20199;-77
2021/09/13 02:43:17;;;;;;;12.17;8.30;;;13.90;99.90;;;;;;5074901;28;20619;-77
2021/09/13 02:45:44;;;;;;;12.47;8.57;;;13.90;99.90;;;;;;5074670;28;20660;-77
2021/09/13 02:48:11;;;;;;;13.90;9.13;;;13.90;99.90;;;;;;5074947;28;20231;-77
2021/09/13 02:50:39;;;;;;;11.03;8.13;;;14.00;99.90;;;;;;5074609;28;20723;-77
2021/09/13 02:53:06;;;;;;;15.93;9.10;;;13.90;99.90;;;;;;5075052;28;20196;-77
2021/09/13 02:55:33;;;;;;;10.63;8.93;;;13.80;99.90;;;;;;5074533;28;20200;-77
2021/09/13 02:57:59;;;;;;;15.77;9.77;;;13.80;99.90;;;;;;5075337;28;20626;-78
2021/09/13 03:00:26;;;;;;;15.47;8.97;;;13.70;99.90;;;;;;5074715;28;20291;-77
2021/09/13 03:02:53;;;;;;;22.90;9.30;;;13.70;99.90;;;;;;5074968;28;20658;-76
2021/09/13 03:05:20;;;;;;;13.13;8.70;;;13.70;99.90;;;;;;5074524;28;20345;-77
2021/09/13 03:07:48;;;;;;;12.97;8.13;;;13.60;99.90;;;;;;5074761;28;20204;-77
2021/09/13 03:10:15;;;;;;;15.77;8.73;;;13.60;99.90;;;;;;5074171;28;20202;-77
2021/09/13 03:12:42;;;;;;;13.73;8.30;;;13.60;99.90;;;;;;5074492;28;20203;-76
2021/09/13 03:15:10;;;;;;;11.30;8.33;;;13.50;99.90;;;;;;5074815;28;20238;-77
2021/09/13 03:17:39;;;;;;;13.93;8.77;;;13.50;99.90;;;;;;5074536;28;20210;-77
2021/09/13 03:20:07;;;;;;;18.50;10.37;;;13.40;99.90;;;;;;5073812;28;20210;-77
2021/09/13 03:22:34;;;;;;;21.40;10.67;;;13.50;99.90;;;;;;5074016;28;20588;-77
2021/09/13 03:25:02;;;;;;;13.97;10.57;;;13.50;99.90;;;;;;5073776;28;20210;-77
2021/09/13 03:27:29;;;;;;;15.83;10.10;;;13.60;99.90;;;;;;5074108;28;20290;-77
2021/09/13 03:29:56;;;;;;;16.67;11.30;;;13.70;99.90;;;;;;5074073;28;20199;-77
2021/09/13 03:32:23;;;;;;;14.10;11.07;;;13.90;99.90;;;;;;5073832;28;20200;-77
2021/09/13 03:34:50;;;;;;;18.53;11.87;;;13.90;99.90;;;;;;5074159;28;20210;-77
2021/09/13 03:37:17;;;;;;;17.43;11.33;;;13.70;99.90;;;;;;5073733;28;20294;-77
2021/09/13 03:39:46;;;;;;;22.27;11.63;;;13.70;99.90;;;;;;5073719;28;20199;-77
2021/09/13 03:42:14;;;;;;;19.10;12.37;;;13.90;99.90;;;;;;5073880;28;20692;-77
2021/09/13 03:44:41;;;;;;;23.57;13.77;;;13.80;99.90;;;;;;5074093;28;20195;-77
2021/09/13 03:47:08;;;;;;;21.60;14.00;;;13.70;99.90;;;;;;5073964;28;20294;-77
2021/09/13 03:49:35;;;;;;;27.43;13.53;;;13.60;99.90;;;;;;5072929;28;20203;-77
2021/09/13 03:52:02;;;;;;;28.93;15.83;;;13.70;99.90;;;;;;5073533;28;20195;-77
2021/09/13 03:54:28;;;;;;;27.13;14.33;;;13.70;99.90;;;;;;5073335;28;20199;-77
2021/09/13 03:56:55;;;;;;;24.57;13.77;;;13.50;99.90;;;;;;5073944;28;20221;-77
2021/09/13 03:59:23;;;;;;;23.80;14.07;;;13.40;99.90;;;;;;5073326;28;20294;-77
2021/09/13 04:01:50;;;;;;;21.60;13.67;;;13.20;99.90;;;;;;5073447;28;20238;-77
2021/09/13 04:04:22;;;;;;;24.80;13.30;;;13.20;99.90;;;;;;5073281;28;20261;-77
2021/09/13 04:06:51;;;;;;;24.23;14.53;;;13.20;99.90;;;;;;5073320;28;20282;-77
2021/09/13 04:12:05;;;;;;;35.37;15.67;;;13.60;99.90;;;;;;5066264;28;20196;-77
2021/09/13 04:14:33;;;;;;;25.83;15.83;;;13.50;99.90;;;;;;5073130;28;20306;-77
2021/09/13 04:17:00;;;;;;;33.13;17.20;;;13.40;99.90;;;;;;5073385;28;20207;-77
2021/09/13 04:19:27;;;;;;;29.13;16.10;;;13.40;99.90;;;;;;5072699;28;20204;-77
2021/09/13 04:21:54;;;;;;;32.30;16.30;;;13.40;99.90;;;;;;5073395;28;20227;-77
2021/09/13 04:24:22;;;;;;;30.10;17.80;;;13.10;99.90;;;;;;5073038;28;20237;-77
2021/09/13 04:26:49;;;;;;;25.90;16.10;;;13.00;99.90;;;;;;5073429;28;20291;-77
2021/09/13 04:29:16;;;;;;;31.73;17.23;;;13.00;99.90;;;;;;5073216;28;20202;-77
2021/09/13 04:31:44;;;;;;;31.80;18.07;;;13.10;99.90;;;;;;5072974;28;20199;-77
2021/09/13 04:34:11;;;;;;;33.00;17.27;;;13.10;99.90;;;;;;5072960;28;20203;-77
2021/09/13 04:36:38;;;;;;;34.33;17.53;;;13.20;99.90;;;;;;5073262;28;20231;-77
2021/09/13 04:39:05;;;;;;;32.73;17.63;;;13.40;99.90;;;;;;5072843;28;20282;-77
2021/09/13 04:41:32;;;;;;;35.00;18.10;;;13.50;99.90;;;;;;5073512;28;20199;-77
2021/09/13 04:43:59;;;;;;;27.80;17.73;;;13.50;99.90;;;;;;5073008;28;20199;-77
2021/09/13 04:46:26;;;;;;;32.73;19.03;;;13.40;99.90;;;;;;5072990;28;20286;-77
2021/09/13 04:48:54;;;;;;;30.57;17.43;;;13.20;99.90;;;;;;5072551;28;20314;-77
2021/09/13 04:51:21;;;;;;;28.20;16.60;;;13.10;99.90;;;;;;5072483;28;20198;-77
2021/09/13 04:53:48;;;;;;;32.13;17.37;;;13.10;99.90;;;;;;5073020;28;20297;-77
2021/09/13 04:56:15;;;;;;;31.03;16.60;;;13.20;99.90;;;;;;5073157;28;20489;-77
2021/09/13 04:58:41;;;;;;;31.40;16.93;;;13.30;99.90;;;;;;5072908;28;20290;-77
2021/09/13 05:01:08;;;;;;;31.97;16.53;;;13.20;99.90;;;;;;5073739;28;20227;-77
2021/09/13 05:03:35;;;;;;;28.63;16.23;;;13.20;99.90;;;;;;5077169;28;20223;-77
2021/09/13 05:06:04;;;;;;;33.27;15.60;;;13.10;99.90;;;;;;5077034;28;20241;-77
2021/09/13 05:08:31;;;;;;;26.20;15.33;;;13.10;99.90;;;;;;5076662;28;20667;-77
2021/09/13 05:10:58;;;;;;;29.40;16.47;;;13.20;99.90;;;;;;5075318;28;20237;-77
2021/09/13 05:13:25;;;;;;;30.83;16.47;;;13.10;99.90;;;;;;5070171;28;20203;-77
2021/09/13 05:15:52;;;;;;;29.73;15.73;;;13.10;99.90;;;;;;5074406;28;20286;-77
2021/09/13 05:18:19;;;;;;;30.67;15.30;;;13.00;99.90;;;;;;5074866;28;20203;-76
2021/09/13 05:20:46;;;;;;;27.33;16.03;;;13.20;99.90;;;;;;5073967;28;20204;-77
2021/09/13 05:23:14;;;;;;;29.23;16.73;;;13.30;99.90;;;;;;5073822;28;20211;-76
2021/09/13 05:25:41;;;;;;;38.07;16.47;;;13.30;99.90;;;;;;5076074;28;20210;-77
2021/09/13 05:28:07;;;;;;;39.53;21.00;;;13.40;99.90;;;;;;5075597;28;20221;-77
2021/09/13 05:30:34;;;;;;;38.10;22.37;;;13.40;99.90;;;;;;5074647;28;20238;-77
2021/09/13 05:33:01;;;;;;;41.80;22.07;;;13.50;99.90;;;;;;5075556;28;20299;-77
2021/09/13 05:35:28;;;;;;;53.33;23.17;;;13.40;99.90;;;;;;5074199;28;20205;-77
2021/09/13 05:37:55;;;;;;;42.20;22.77;;;13.30;99.90;;;;;;5075132;28;20286;-76
2021/09/13 05:40:23;;;;;;;37.57;20.50;;;13.20;99.90;;;;;;5074498;28;20191;-76
2021/09/13 05:42:50;;;;;;;39.17;20.83;;;13.20;99.90;;;;;;5067568;28;20220;-76
2021/09/13 05:45:17;;;;;;;35.23;19.63;;;13.20;99.90;;;;;;5071080;28;20195;-77
2021/09/13 05:47:44;;;;;;;32.13;18.93;;;13.20;99.90;;;;;;5075610;28;20746;-77
2021/09/13 05:50:11;;;;;;;50.63;18.40;;;13.20;99.90;;;;;;5074040;28;20212;-77
2021/09/13 05:52:39;;;;;;;37.90;19.17;;;13.20;99.90;;;;;;5075153;28;20199;-77
2021/09/13 05:55:06;;;;;;;30.23;18.10;;;13.20;99.90;;;;;;5074460;28;20290;-77
2021/09/13 05:57:34;;;;;;;35.73;16.97;;;13.20;99.90;;;;;;5074096;28;20202;-77
2021/09/13 06:00:01;;;;;;;30.77;16.87;;;13.20;99.90;;;;;;5075035;28;20298;-76
2021/09/13 06:02:28;;;;;;;31.00;16.33;;;13.20;99.90;;;;;;5075593;28;20227;-76
2021/09/13 06:04:55;;;;;;;33.60;16.47;;;13.30;99.90;;;;;;5075276;28;20203;-76
2021/09/13 06:07:22;;;;;;;37.73;17.90;;;13.30;99.90;;;;;;5075453;28;20205;-76
2021/09/13 06:09:49;;;;;;;36.37;17.63;;;13.20;99.90;;;;;;5074841;28;20286;-76
2021/09/13 06:12:16;;;;;;;31.33;16.77;;;13.20;99.90;;;;;;5074911;28;20286;-76
2021/09/13 06:14:45;;;;;;;40.20;17.60;;;13.20;99.90;;;;;;5074974;28;20219;-76
2021/09/13 06:17:13;;;;;;;36.93;16.17;;;13.30;99.90;;;;;;5075206;28;20235;-76
2021/09/13 06:19:40;;;;;;;36.07;17.23;;;13.30;99.90;;;;;;5075479;28;20200;-75
2021/09/13 06:22:07;;;;;;;39.20;17.33;;;13.30;99.90;;;;;;5074922;28;20245;-76
2021/09/13 06:24:35;;;;;;;32.33;16.50;;;13.50;99.90;;;;;;5074945;28;20208;-76
2021/09/13 06:27:02;;;;;;;32.77;17.37;;;13.40;99.90;;;;;;5080467;28;20689;-76
2021/09/13 06:29:29;;;;;;;34.07;16.37;;;13.50;99.90;;;;;;5080235;28;20284;-76
2021/09/13 06:31:57;;;;;;;35.53;18.10;;;13.60;99.90;;;;;;5074820;28;20203;-76
2021/09/13 06:34:24;;;;;;;33.90;17.77;;;13.60;99.90;;;;;;5075020;28;20223;-76
2021/09/13 06:36:51;;;;;;;31.43;17.40;;;13.60;99.90;;;;;;5074079;28;20561;-76
2021/09/13 06:39:18;;;;;;;37.80;17.07;;;13.70;99.90;;;;;;5074953;28;20254;-76
2021/09/13 06:41:44;;;;;;;32.87;17.47;;;13.80;99.90;;;;;;5074240;28;20282;-77
2021/09/13 06:44:11;;;;;;;34.40;17.10;;;13.80;99.90;;;;;;5073642;28;20662;-76
2021/09/13 06:46:48;;;;;;;28.50;16.63;;;13.90;99.90;;;;;;5073276;28;20684;-76
2021/09/13 06:49:18;;;;;;;27.20;16.67;;;14.00;99.90;;;;;;5074307;28;20206;-76
2021/09/13 06:51:45;;;;;;;31.30;16.70;;;14.20;99.90;;;;;;5073805;28;20652;-76
2021/09/13 06:54:12;;;;;;;28.97;17.00;;;14.30;99.90;;;;;;5073916;28;20288;-76
2021/09/13 06:56:38;;;;;;;30.90;17.57;;;14.40;99.90;;;;;;5074184;28;20295;-76
2021/09/13 06:59:05;;;;;;;27.97;16.00;;;14.50;99.90;;;;;;5074556;28;20223;-76
2021/09/13 07:01:32;;;;;;;28.63;16.27;;;14.60;99.90;;;;;;5074391;28;20708;-77
2021/09/13 07:03:59;;;;;;;27.33;15.97;;;14.70;99.90;;;;;;5073971;28;20223;-77
2021/09/13 07:06:29;;;;;;;25.00;14.40;;;14.90;99.90;;;;;;5074361;28;20200;-77
2021/09/13 07:08:56;;;;;;;28.60;15.10;;;15.00;99.90;;;;;;5074389;28;20205;-76
2021/09/13 07:11:23;;;;;;;18.40;12.47;;;15.00;99.90;;;;;;5074467;28;20226;-76
2021/09/13 07:13:50;;;;;;;21.07;13.13;;;15.00;99.90;;;;;;5074253;28;20647;-77
2021/09/13 07:16:16;;;;;;;22.47;13.20;;;14.90;99.90;;;;;;5073922;28;20290;-76
2021/09/13 07:18:43;;;;;;;19.47;12.77;;;15.10;99.90;;;;;;5074133;28;20290;-76
2021/09/13 07:21:10;;;;;;;22.60;12.40;;;15.10;99.90;;;;;;5074316;28;20199;-77
2021/09/13 07:23:38;;;;;;;22.73;12.20;;;15.20;99.90;;;;;;5073691;28;20654;-76
2021/09/13 07:26:05;;;;;;;22.93;11.47;;;15.40;99.90;;;;;;5073120;28;20638;-76
2021/09/13 07:28:32;;;;;;;18.57;11.43;;;15.30;99.90;;;;;;5074302;28;20206;-76
2021/09/13 07:30:59;;;;;;;20.07;10.83;;;15.30;99.90;;;;;;5074175;28;20203;-77
2021/09/13 07:33:26;;;;;;;20.67;10.63;;;15.30;99.90;;;;;;5073522;28;20294;-77
2021/09/13 07:35:53;;;;;;;20.47;10.67;;;15.40;99.90;;;;;;5074106;28;20563;-77
2021/09/13 07:38:20;;;;;;;17.77;11.00;;;15.50;99.90;;;;;;5073614;28;20632;-77
2021/09/13 07:40:49;;;;;;;14.80;9.83;;;15.70;99.90;;;;;;5073844;28;20294;-77
2021/09/13 07:43:15;;;;;;;13.93;10.13;;;15.90;99.90;;;;;;5070420;28;20213;-77
2021/09/13 07:45:42;;;;;;;17.53;10.40;;;16.00;99.90;;;;;;5073353;28;20206;-76
2021/09/13 07:48:09;;;;;;;14.43;10.00;;;16.00;99.90;;;;;;5073710;28;20282;-76
2021/09/13 07:50:36;;;;;;;15.43;8.93;;;16.20;99.90;;;;;;5073401;28;20195;-76
2021/09/13 07:53:03;;;;;;;15.37;9.10;;;16.50;99.90;;;;;;5073521;28;20286;-76
2021/09/13 07:55:30;;;;;;;15.93;8.87;;;16.70;99.90;;;;;;5073519;28;20230;-76
2021/09/13 07:57:58;;;;;;;13.17;8.70;;;16.80;99.90;;;;;;5073547;28;20204;-76
2021/09/13 08:00:25;;;;;;;17.93;9.17;;;16.80;99.90;;;;;;5072232;28;20247;-76
2021/09/13 08:02:52;;;;;;;14.13;7.87;;;16.50;99.90;;;;;;5073416;28;20303;-76
2021/09/13 08:05:21;;;;;;;11.47;8.00;;;16.60;99.90;;;;;;5073265;28;20203;-76
2021/09/13 08:07:48;;;;;;;11.63;7.37;;;16.70;99.90;;;;;;5073593;28;20214;-77
2021/09/13 08:10:14;;;;;;;9.20;6.07;;;16.80;99.90;;;;;;5073326;28;20204;-76
2021/09/13 08:12:41;;;;;;;8.97;6.47;;;16.90;99.90;;;;;;5073492;28;20199;-76
2021/09/13 08:15:10;;;;;;;10.70;6.23;;;16.80;99.90;;;;;;5073899;28;20286;-76
2021/09/13 08:17:37;;;;;;;14.67;6.50;;;16.90;99.90;;;;;;5073524;28;20286;-76
2021/09/13 08:20:05;;;;;;;13.40;6.67;;;16.90;99.90;;;;;;5073133;28;20196;-77
2021/09/13 08:22:32;;;;;;;12.93;6.20;;;17.20;99.90;;;;;;5073241;28;20206;-77
2021/09/13 08:24:59;;;;;;;12.53;7.00;;;17.60;99.90;;;;;;5073224;28;20254;-77
2021/09/13 08:27:26;;;;;;;10.73;6.87;;;17.80;99.90;;;;;;5072901;28;20578;-76
2021/09/13 08:29:52;;;;;;;11.30;6.63;;;17.80;99.90;;;;;;5073423;28;20568;-77
2021/09/13 08:32:21;;;;;;;14.43;6.43;;;18.10;99.90;;;;;;5072126;28;20323;-77
2021/09/13 08:34:47;;;;;;;11.73;6.80;;;18.20;99.90;;;;;;5072742;28;20195;-77
2021/09/13 08:37:14;;;;;;;12.07;6.20;;;18.30;99.90;;;;;;5073072;28;20611;-77
2021/09/13 08:39:41;;;;;;;16.43;7.17;;;18.40;99.90;;;;;;5072840;28;20728;-77
2021/09/13 08:42:08;;;;;;;15.67;7.00;;;18.40;99.90;;;;;;5072976;28;20294;-77
2021/09/13 08:44:36;;;;;;;8.70;6.53;;;18.40;99.90;;;;;;5073139;28;20229;-76
2021/09/13 08:47:06;;;;;;;12.13;6.37;;;18.40;99.90;;;;;;5072852;28;20564;-76
2021/09/13 08:49:36;;;;;;;10.07;6.13;;;18.50;99.90;;;;;;5072635;28;20233;-77
2021/09/13 08:52:05;;;;;;;11.43;6.53;;;18.60;99.90;;;;;;5073242;28;20640;-77
2021/09/13 08:54:35;;;;;;;13.40;6.93;;;18.40;99.90;;;;;;5072473;28;20204;-77
2021/09/13 08:57:04;;;;;;;9.43;7.07;;;18.30;99.90;;;;;;5072711;28;20203;-77
2021/09/13 08:59:35;;;;;;;11.17;7.00;;;18.30;99.90;;;;;;5072903;28;20207;-77
2021/09/13 09:02:02;;;;;;;14.03;7.23;;;18.40;99.90;;;;;;5072523;28;20210;-77
2021/09/13 09:04:31;;;;;;;11.97;6.77;;;18.30;99.90;;;;;;5072766;28;20268;-76
2021/09/13 09:07:09;;;;;;;10.03;6.53;;;18.50;99.90;;;;;;5072349;28;20566;-77
2021/09/13 09:09:36;;;;;;;13.80;7.40;;;18.80;99.90;;;;;;5072467;28;20219;-77
2021/09/13 09:12:06;;;;;;;10.23;6.60;;;19.10;99.90;;;;;;5072804;28;20203;-76
2021/09/13 09:14:38;;;;;;;11.90;6.80;;;19.30;99.90;;;;;;5072530;28;20203;-77
2021/09/13 09:17:07;;;;;;;15.67;7.63;;;19.30;99.90;;;;;;5072589;28;20253;-77
2021/09/13 09:19:34;;;;;;;9.57;6.57;;;19.20;99.90;;;;;;5072238;28;20203;-77
2021/09/13 09:22:22;;;;;;;9.40;6.47;;;19.60;99.90;;;;;;5072619;28;20235;-76
2021/09/13 09:24:50;;;;;;;9.13;6.57;;;20.00;99.90;;;;;;5067228;28;20224;-77
2021/09/13 09:27:17;;;;;;;12.30;5.90;;;20.20;99.90;;;;;;5073067;28;20199;-77
2021/09/13 09:29:44;;;;;;;14.73;5.70;;;20.60;99.90;;;;;;5089954;28;20199;-77
2021/09/13 09:32:18;;;;;;;15.27;5.70;;;21.20;99.90;;;;;;5071430;28;20199;-76
2021/09/13 09:34:45;;;;;;;11.97;5.60;;;21.60;99.90;;;;;;5067585;28;20648;-76
2021/09/13 09:37:12;;;;;;;12.03;5.90;;;21.90;99.90;;;;;;5071904;28;20284;-77
2021/09/13 09:39:44;;;;;;;8.97;5.40;;;22.50;99.90;;;;;;5059576;28;20219;-77
2021/09/13 09:42:15;;;;;;;8.35;5.28;;;22.80;99.90;;;;;;5070941;28;20578;-77
2021/09/13 09:44:45;;;;;;;9.13;5.00;;;23.00;99.90;;;;;;5077928;28;20218;-77
2021/09/13 09:47:14;;;;;;;7.05;4.10;;;23.00;99.90;;;;;;5080779;28;20677;-77
2021/09/13 09:49:43;;;;;;;14.35;5.28;;;22.80;99.90;;;;;;5085515;28;20298;-76
2021/09/13 09:52:10;;;;;;;7.88;4.47;;;23.50;99.90;;;;;;5084777;28;20227;-77
2021/09/13 09:54:37;;;;;;;5.20;3.33;;;24.30;99.90;;;;;;5085953;28;20191;-77
2021/09/13 09:57:07;;;;;;;5.47;3.20;;;23.70;99.90;;;;;;5084519;28;20202;-77
2021/09/13 09:59:37;;;;;;;5.25;3.03;;;23.50;99.90;;;;;;5082114;28;20180;-77
2021/09/13 10:02:13;;;;;;;8.13;3.30;;;23.20;99.90;;;;;;5081151;28;20202;-77
2021/09/13 10:04:42;;;;;;;6.57;3.90;;;23.20;99.90;;;;;;5086222;28;20271;-77
2021/09/13 10:07:14;;;;;;;7.28;3.58;;;23.40;99.90;;;;;;5081977;28;20196;-77
2021/09/13 10:09:42;;;;;;;4.45;3.15;;;22.80;99.90;;;;;;5083630;28;20287;-78
2021/09/13 10:12:11;;;;;;;4.55;3.40;;;22.40;99.90;;;;;;5082718;28;20257;-77
2021/09/13 10:14:38;;;;;;;5.63;3.10;;;22.90;99.90;;;;;;5068896;28;20243;-77
2021/09/13 10:17:06;;;;;;;6.05;2.92;;;23.50;99.90;;;;;;5063587;28;20277;-76
2021/09/13 10:19:33;;;;;;;6.18;3.00;;;24.00;99.90;;;;;;5065960;28;20242;-77
2021/09/13 10:22:01;;;;;;;4.88;3.25;;;24.10;99.90;;;;;;5065255;28;20196;-77
2021/09/13 10:24:31;;;;;;;4.93;2.88;;;23.40;99.90;;;;;;5065224;28;20338;-76
2021/09/13 10:27:02;;;;;;;4.93;3.25;;;23.80;99.90;;;;;;5057763;28;20196;-76
2021/09/13 10:29:30;;;;;;;6.25;3.00;;;23.50;99.90;;;;;;5085536;28;20187;-77
2021/09/13 10:32:00;;;;;;;5.57;2.80;;;23.40;99.90;;;;;;5083387;28;20638;-76
2021/09/13 10:34:30;;;;;;;5.18;2.83;;;23.70;99.90;;;;;;5077867;28;20192;-76
2021/09/13 10:37:10;;;;;;;4.43;2.60;;;23.00;99.90;;;;;;5075235;28;20203;-76
2021/09/13 10:40:04;;;;;;;5.30;2.58;;;23.50;99.90;;;;;;5075027;28;20196;-76
2021/09/13 10:42:39;;;;;;;5.10;2.90;;;23.60;99.90;;;;;;5075067;28;20242;-76
2021/09/13 10:45:16;;;;;;;5.97;2.97;;;23.70;99.90;;;;;;5067141;28;20223;-77
2021/09/13 10:47:45;;;;;;;4.82;3.28;;;23.20;99.90;;;;;;5050052;28;20298;-77
2021/09/13 10:50:13;;;;;;;6.43;3.55;;;23.80;99.90;;;;;;5057274;28;20677;-77
2021/09/13 10:52:40;;;;;;;4.63;3.05;;;23.80;99.90;;;;;;5075498;28;20230;-81
2021/09/13 10:55:25;;;;;;;5.40;3.63;;;24.30;99.90;;;;;;5076133;28;20223;-77
2021/09/13 10:57:57;;;;;;;4.40;3.13;;;24.10;99.90;;;;;;5078403;28;20239;-77
2021/09/13 11:00:56;;;;;;;4.55;3.50;;;24.60;99.90;;;;;;5078837;28;20203;-76
2021/09/13 11:03:52;;;;;;;3.38;2.85;;;25.20;99.90;;;;;;5076096;28;20210;-76
2021/09/13 11:06:47;;;;;;;4.55;2.92;;;24.00;99.90;;;;;;5072789;28;20629;-77
2021/09/13 11:09:21;;;;;;;7.32;2.60;;;23.50;99.90;;;;;;5064090;28;20588;-77
2021/09/13 11:11:55;;;;;;;5.13;2.67;;;24.00;99.90;;;;;;5073767;28;20615;-77
2021/09/13 11:14:24;;;;;;;4.78;3.35;;;24.10;99.90;;;;;;5062445;28;20678;-77
2021/09/13 11:16:53;;;;;;;5.57;3.22;;;23.50;99.90;;;;;;5086771;28;20227;-77
2021/09/13 11:19:22;;;;;;;4.13;3.63;;;23.30;99.90;;;;;;5072917;28;20628;-77
2021/09/13 11:21:50;;;;;;;8.30;4.45;;;23.40;99.90;;;;;;5072528;28;20203;-77
2021/09/13 11:24:18;;;;;;;5.57;2.80;;;23.90;99.90;;;;;;5073850;28;20258;-77
2021/09/13 11:26:48;;;;;;;5.50;3.70;;;24.00;99.90;;;;;;5071014;28;20245;-76
2021/09/13 11:29:17;;;;;;;8.32;4.30;;;24.00;99.90;;;;;;5068737;28;20235;-77
2021/09/13 11:31:46;;;;;;;8.95;4.47;;;24.20;99.90;;;;;;5081948;28;20195;-77
2021/09/13 11:34:29;;;;;;;7.97;2.90;;;23.80;99.90;;;;;;5073587;28;20245;-77
2021/09/13 11:37:01;;;;;;;4.60;3.17;;;23.60;99.90;;;;;;5068890;28;20291;-77
2021/09/13 11:39:30;;;;;;;14.35;5.47;;;22.80;99.90;;;;;;5072044;28;20315;-77
2021/09/13 11:42:00;;;;;;;14.93;5.28;;;22.40;99.90;;;;;;5072421;28;20291;-76
2021/09/13 11:44:28;;;;;;;10.40;4.72;;;22.40;99.90;;;;;;5062259;28;20257;-76
2021/09/13 11:46:57;;;;;;;7.22;4.57;;;22.90;99.90;;;;;;5068757;28;20639;-76
2021/09/13 11:49:27;;;;;;;5.78;5.10;;;23.10;99.90;;;;;;5072504;28;20231;-76
2021/09/13 11:52:07;;;;;;;5.97;4.78;;;23.40;99.90;;;;;;5068447;28;20294;-77
2021/09/13 11:54:40;;;;;;;7.78;5.15;;;23.40;99.90;;;;;;5065151;28;20279;-76
2021/09/13 11:57:18;;;;;;;7.20;4.95;;;23.30;99.90;;;;;;5080361;28;20203;-77
2021/09/13 11:59:52;;;;;;;11.45;5.72;;;23.00;99.90;;;;;;5070632;28;20290;-77
2021/09/13 12:02:19;;;;;;;9.75;5.80;;;23.10;99.90;;;;;;5070824;28;20209;-77
2021/09/13 12:04:47;;;;;;;5.60;4.70;;;23.30;99.90;;;;;;5072825;28;20318;-77
2021/09/13 12:07:14;;;;;;;7.75;4.50;;;23.50;99.90;;;;;;5072475;28;20684;-76
2021/09/13 12:09:43;;;;;;;8.07;4.53;;;23.10;99.90;;;;;;5077009;28;20257;-77
2021/09/13 12:12:15;;;;;;;6.43;3.78;;;23.40;99.90;;;;;;5077721;28;20297;-77
2021/09/13 12:14:42;;;;;;;4.43;3.22;;;23.30;99.90;;;;;;5071127;28;20211;-77
2021/09/13 12:17:11;;;;;;;10.73;4.07;;;23.20;99.90;;;;;;5055956;28;20835;-77
2021/09/13 12:19:40;;;;;;;6.60;4.47;;;22.80;99.90;;;;;;5064581;28;20201;-77
2021/09/13 12:22:09;;;;;;;8.50;4.38;;;23.40;99.90;;;;;;5073167;28;20290;-77
2021/09/13 12:24:37;;;;;;;5.75;4.53;;;23.40;99.90;;;;;;5069524;28;20230;-77
2021/09/13 12:27:19;;;;;;;6.20;3.53;;;23.40;99.90;;;;;;5072940;28;20200;-77
2021/09/13 12:30:01;;;;;;;5.50;3.47;;;23.50;99.90;;;;;;5071367;28;20445;-77
2021/09/13 12:32:31;;;;;;;6.18;4.22;;;22.90;99.90;;;;;;5071353;28;20246;-76
2021/09/13 12:35:02;;;;;;;5.13;3.78;;;22.70;99.90;;;;;;5072617;28;20567;-76
2021/09/13 12:37:33;;;;;;;7.65;4.05;;;22.50;99.90;;;;;;5070379;28;20227;-77
2021/09/13 12:40:10;;;;;;;4.65;3.70;;;22.80;99.90;;;;;;5071373;28;20628;-77
2021/09/13 12:42:38;;;;;;;7.38;3.45;;;23.20;99.90;;;;;;5070968;28;20195;-77
2021/09/13 12:45:06;;;;;;;6.93;3.50;;;23.20;99.90;;;;;;5071200;28;20227;-77